sensor_id;sensor_type;location;lat;lon;timestamp;pressure;altitude;pressure_sealevel;temperature;humidity
14800;BME280;7491;57.750;11.970;2023-04-19T00:00:02;78096.72;;;-142.11;92.32
14800;BME280;7491;57.750;11.970;2023-04-19T00:02:32;78108.94;;;-142.11;92.29
14800;BME280;7491;57.750;11.970;2023-04-19T00:05:00;78125.28;;;-142.11;93.26
14800;BME280;7491;57.750;11.970;2023-04-19T00:07:27;78127.31;;;-142.11;93.06
14800;BME280;7491;57.750;11.970;2023-04-19T00:09:54;78127.31;;;-142.11;92.78
14800;BME280;7491;57.750;11.970;2023-04-19T00:12:21;78141.59;;;-142.11;92.91
14800;BME280;7491;57.750;11.970;2023-04-19T00:14:47;78127.31;;;-142.11;92.59
14800;BME280;7491;57.750;11.970;2023-04-19T00:17:14;78135.47;;;-142.11;92.96
14800;BME280;7491;57.750;11.970;2023-04-19T00:19:41;78141.59;;;-142.11;92.73
14800;BME280;7491;57.750;11.970;2023-04-19T00:22:10;78135.47;;;-142.11;92.64
14800;BME280;7491;57.750;11.970;2023-04-19T00:24:37;78135.47;;;-142.11;92.42
14800;BME280;7491;57.750;11.970;2023-04-19T00:27:03;78139.53;;;-142.11;92.46
14800;BME280;7491;57.750;11.970;2023-04-19T00:29:30;78143.63;;;-142.11;92.11
14800;BME280;7491;57.750;11.970;2023-04-19T00:31:57;78159.94;;;-142.11;92.51
14800;BME280;7491;57.750;11.970;2023-04-19T00:34:23;78151.78;;;-142.11;92.59
14800;BME280;7491;57.750;11.970;2023-04-19T00:36:50;78164.03;;;-142.11;92.95
14800;BME280;7491;57.750;11.970;2023-04-19T00:39:18;78164.03;;;-142.11;92.66
14800;BME280;7491;57.750;11.970;2023-04-19T00:41:45;78176.25;;;-142.11;92.84
14800;BME280;7491;57.750;11.970;2023-04-19T00:44:11;78186.47;;;-142.11;93.47
14800;BME280;7491;57.750;11.970;2023-04-19T00:46:38;78212.97;;;-142.11;93.40
14800;BME280;7491;57.750;11.970;2023-04-19T00:49:05;78217.06;;;-142.11;93.96
14800;BME280;7491;57.750;11.970;2023-04-19T00:51:33;78223.16;;;-142.11;93.73
14800;BME280;7491;57.750;11.970;2023-04-19T00:54:01;78223.16;;;-142.11;93.78
14800;BME280;7491;57.750;11.970;2023-04-19T00:56:29;78245.59;;;-142.11;94.15
14800;BME280;7491;57.750;11.970;2023-04-19T00:58:58;78247.66;;;-142.11;94.50
14800;BME280;7491;57.750;11.970;2023-04-19T01:01:25;78263.97;;;-142.11;94.61
14800;BME280;7491;57.750;11.970;2023-04-19T01:03:51;78259.88;;;-142.11;94.82
14800;BME280;7491;57.750;11.970;2023-04-19T01:06:18;78241.53;;;-142.11;94.60
14800;BME280;7491;57.750;11.970;2023-04-19T01:08:45;78227.25;;;-142.11;94.40
14800;BME280;7491;57.750;11.970;2023-04-19T01:11:12;78229.28;;;-142.11;94.26
14800;BME280;7491;57.750;11.970;2023-04-19T01:13:40;78215.00;;;-142.11;93.92
14800;BME280;7491;57.750;11.970;2023-04-19T01:16:07;78227.25;;;-142.11;93.84
14800;BME280;7491;57.750;11.970;2023-04-19T01:18:33;78233.38;;;-142.11;93.78
14800;BME280;7491;57.750;11.970;2023-04-19T01:21:02;78223.16;;;-142.11;93.51
14800;BME280;7491;57.750;11.970;2023-04-19T01:23:29;78210.94;;;-142.11;93.05
14800;BME280;7491;57.750;11.970;2023-04-19T01:25:56;78210.94;;;-142.11;92.98
14800;BME280;7491;57.750;11.970;2023-04-19T01:28:23;78225.22;;;-142.11;93.18
14800;BME280;7491;57.750;11.970;2023-04-19T01:30:50;78227.25;;;-142.11;93.04
14800;BME280;7491;57.750;11.970;2023-04-19T01:33:18;78223.16;;;-142.11;92.90
14800;BME280;7491;57.750;11.970;2023-04-19T01:35:46;78225.22;;;-142.11;92.92
14800;BME280;7491;57.750;11.970;2023-04-19T01:38:13;78229.28;;;-142.11;93.09
14800;BME280;7491;57.750;11.970;2023-04-19T01:40:41;78231.34;;;-142.11;92.77
14800;BME280;7491;57.750;11.970;2023-04-19T01:43:10;78227.25;;;-142.11;92.82
14800;BME280;7491;57.750;11.970;2023-04-19T01:45:36;78233.38;;;-142.11;92.68
14800;BME280;7491;57.750;11.970;2023-04-19T01:48:03;78249.69;;;-142.11;93.28
14800;BME280;7491;57.750;11.970;2023-04-19T01:50:30;78249.69;;;-142.11;93.27
14800;BME280;7491;57.750;11.970;2023-04-19T01:52:57;78247.66;;;-142.11;93.26
14800;BME280;7491;57.750;11.970;2023-04-19T01:55:24;78255.81;;;-142.11;93.30
14800;BME280;7491;57.750;11.970;2023-04-19T01:57:52;78261.94;;;-142.11;93.33
14800;BME280;7491;57.750;11.970;2023-04-19T02:00:19;78270.09;;;-142.11;93.74
14800;BME280;7491;57.750;11.970;2023-04-19T02:02:46;78290.47;;;-142.11;93.93
14800;BME280;7491;57.750;11.970;2023-04-19T02:05:13;78296.59;;;-142.11;94.29
14800;BME280;7491;57.750;11.970;2023-04-19T02:07:40;78294.56;;;-142.11;94.49
14800;BME280;7491;57.750;11.970;2023-04-19T02:10:09;78302.72;;;-142.11;94.49
14800;BME280;7491;57.750;11.970;2023-04-19T02:12:36;78300.69;;;-142.11;94.63
14800;BME280;7491;57.750;11.970;2023-04-19T02:15:06;78317.00;;;-142.11;95.21
14800;BME280;7491;57.750;11.970;2023-04-19T02:17:33;78331.28;;;-142.11;95.15
14800;BME280;7491;57.750;11.970;2023-04-19T02:20:00;78339.44;;;-142.11;95.96
14800;BME280;7491;57.750;11.970;2023-04-19T02:22:28;78349.63;;;-142.11;96.78
14800;BME280;7491;57.750;11.970;2023-04-19T02:24:55;78359.84;;;-142.11;96.60
14800;BME280;7491;57.750;11.970;2023-04-19T02:27:21;78357.78;;;-142.11;96.70
14800;BME280;7491;57.750;11.970;2023-04-19T02:29:48;78361.88;;;-142.11;97.30
14800;BME280;7491;57.750;11.970;2023-04-19T02:32:17;78368.00;;;-142.11;97.72
14800;BME280;7491;57.750;11.970;2023-04-19T02:34:43;78376.16;;;-142.11;97.76
14800;BME280;7491;57.750;11.970;2023-04-19T02:37:10;78376.16;;;-142.11;98.28
14800;BME280;7491;57.750;11.970;2023-04-19T02:39:37;78370.03;;;-142.11;98.11
14800;BME280;7491;57.750;11.970;2023-04-19T02:42:06;78365.97;;;-142.11;97.70
14800;BME280;7491;57.750;11.970;2023-04-19T02:44:32;78370.03;;;-142.11;97.98
14800;BME280;7491;57.750;11.970;2023-04-19T02:46:59;78380.22;;;-142.11;98.58
14800;BME280;7491;57.750;11.970;2023-04-19T02:49:29;78388.41;;;-142.11;98.76
14800;BME280;7491;57.750;11.970;2023-04-19T02:51:57;78374.13;;;-142.11;98.37
14800;BME280;7491;57.750;11.970;2023-04-19T02:54:24;78374.13;;;-142.11;98.15
14800;BME280;7491;57.750;11.970;2023-04-19T02:56:50;78370.03;;;-142.11;98.38
14800;BME280;7491;57.750;11.970;2023-04-19T02:59:17;78384.31;;;-142.11;98.47
14800;BME280;7491;57.750;11.970;2023-04-19T03:01:44;78386.34;;;-142.11;98.73
14800;BME280;7491;57.750;11.970;2023-04-19T03:04:10;78404.72;;;-142.11;99.15
14800;BME280;7491;57.750;11.970;2023-04-19T03:06:38;78408.78;;;-142.11;99.52
14800;BME280;7491;57.750;11.970;2023-04-19T03:09:06;78402.66;;;-142.11;99.13
14800;BME280;7491;57.750;11.970;2023-04-19T03:11:33;78408.78;;;-142.11;99.73
14800;BME280;7491;57.750;11.970;2023-04-19T03:14:00;78412.88;;;-142.11;99.36
14800;BME280;7491;57.750;11.970;2023-04-19T03:16:26;78410.84;;;-142.11;99.69
14800;BME280;7491;57.750;11.970;2023-04-19T03:18:54;78419.00;;;-142.11;99.92
14800;BME280;7491;57.750;11.970;2023-04-19T03:21:21;78408.78;;;-142.11;99.49
14800;BME280;7491;57.750;11.970;2023-04-19T03:23:52;78412.88;;;-142.11;99.31
14800;BME280;7491;57.750;11.970;2023-04-19T03:26:19;78435.31;;;-142.11;99.79
14800;BME280;7491;57.750;11.970;2023-04-19T03:28:46;78410.84;;;-142.11;99.27
14800;BME280;7491;57.750;11.970;2023-04-19T03:31:13;78404.72;;;-142.11;99.46
14800;BME280;7491;57.750;11.970;2023-04-19T03:33:40;78406.75;;;-142.11;99.28
14800;BME280;7491;57.750;11.970;2023-04-19T03:36:07;78402.66;;;-142.11;98.96
14800;BME280;7491;57.750;11.970;2023-04-19T03:38:35;78392.47;;;-142.11;98.63
14800;BME280;7491;57.750;11.970;2023-04-19T03:41:04;78386.34;;;-142.11;98.67
14800;BME280;7491;57.750;11.970;2023-04-19T03:43:30;78396.56;;;-142.11;98.90
14800;BME280;7491;57.750;11.970;2023-04-19T03:45:57;78402.66;;;-142.11;99.25
14800;BME280;7491;57.750;11.970;2023-04-19T03:48:24;78400.63;;;-142.11;98.94
14800;BME280;7491;57.750;11.970;2023-04-19T03:50:50;78406.75;;;-142.11;99.16
14800;BME280;7491;57.750;11.970;2023-04-19T03:53:17;78404.72;;;-142.11;99.28
14800;BME280;7491;57.750;11.970;2023-04-19T03:55:44;78408.78;;;-142.11;99.17
14800;BME280;7491;57.750;11.970;2023-04-19T03:58:12;78402.66;;;-142.11;99.33
14800;BME280;7491;57.750;11.970;2023-04-19T04:00:39;78400.63;;;-142.11;99.35
14800;BME280;7491;57.750;11.970;2023-04-19T04:03:05;78398.59;;;-142.11;99.20
14800;BME280;7491;57.750;11.970;2023-04-19T04:05:33;78410.84;;;-142.11;99.42
14800;BME280;7491;57.750;11.970;2023-04-19T04:08:00;78404.72;;;-142.11;99.54
14800;BME280;7491;57.750;11.970;2023-04-19T04:10:27;78416.94;;;-142.11;100.00
14800;BME280;7491;57.750;11.970;2023-04-19T04:12:53;78410.84;;;-142.11;99.88
14800;BME280;7491;57.750;11.970;2023-04-19T04:15:21;78412.88;;;-142.11;100.00
14800;BME280;7491;57.750;11.970;2023-04-19T04:17:49;78416.94;;;-142.11;100.00
14800;BME280;7491;57.750;11.970;2023-04-19T04:20:16;78414.91;;;-142.11;100.00
14800;BME280;7491;57.750;11.970;2023-04-19T04:22:42;78423.06;;;-142.11;100.00
14800;BME280;7491;57.750;11.970;2023-04-19T04:25:10;78408.78;;;-142.11;100.00
14800;BME280;7491;57.750;11.970;2023-04-19T04:27:37;78390.44;;;-142.11;100.00
14800;BME280;7491;57.750;11.970;2023-04-19T04:30:05;78251.72;;;-142.11;99.81
14800;BME280;7491;57.750;11.970;2023-04-19T04:32:34;78119.16;;;-142.11;97.28
14800;BME280;7491;57.750;11.970;2023-04-19T04:35:01;78180.34;;;-142.11;96.21
14800;BME280;7491;57.750;11.970;2023-04-19T04:37:28;78231.34;;;-142.11;97.04
14800;BME280;7491;57.750;11.970;2023-04-19T04:39:55;78272.13;;;-142.11;97.65
14800;BME280;7491;57.750;11.970;2023-04-19T04:42:22;78306.81;;;-142.11;98.65
14800;BME280;7491;57.750;11.970;2023-04-19T04:44:49;78321.09;;;-142.11;99.55
14800;BME280;7491;57.750;11.970;2023-04-19T04:47:16;78327.19;;;-142.11;99.59
14800;BME280;7491;57.750;11.970;2023-04-19T04:49:44;78331.28;;;-142.11;100.00
14800;BME280;7491;57.750;11.970;2023-04-19T04:52:11;78337.41;;;-142.11;100.00
14800;BME280;7491;57.750;11.970;2023-04-19T04:54:38;78337.41;;;-142.11;100.00
14800;BME280;7491;57.750;11.970;2023-04-19T04:57:04;78335.34;;;-142.11;100.00
14800;BME280;7491;57.750;11.970;2023-04-19T04:59:31;78325.16;;;-142.11;100.00
14800;BME280;7491;57.750;11.970;2023-04-19T05:01:58;78335.34;;;-142.11;100.00
14800;BME280;7491;57.750;11.970;2023-04-19T05:04:24;78323.13;;;-142.11;100.00
14800;BME280;7491;57.750;11.970;2023-04-19T05:06:52;78321.09;;;-142.11;99.99
14800;BME280;7491;57.750;11.970;2023-04-19T05:09:19;78237.44;;;-142.11;99.06
14800;BME280;7491;57.750;11.970;2023-04-19T05:11:46;78200.72;;;-142.11;97.63
14800;BME280;7491;57.750;11.970;2023-04-19T05:14:12;78174.22;;;-142.11;96.97
14800;BME280;7491;57.750;11.970;2023-04-19T05:16:39;78159.94;;;-142.11;96.17
14800;BME280;7491;57.750;11.970;2023-04-19T05:19:06;78147.69;;;-142.11;96.10
14800;BME280;7491;57.750;11.970;2023-04-19T05:21:32;78149.75;;;-142.11;95.45
14800;BME280;7491;57.750;11.970;2023-04-19T05:24:01;78125.28;;;-142.11;95.56
14800;BME280;7491;57.750;11.970;2023-04-19T05:26:28;78121.19;;;-142.11;94.63
14800;BME280;7491;57.750;11.970;2023-04-19T05:28:56;78123.22;;;-142.11;94.14
14800;BME280;7491;57.750;11.970;2023-04-19T05:31:23;78090.59;;;-142.11;94.74
14800;BME280;7491;57.750;11.970;2023-04-19T05:33:49;78102.84;;;-142.11;93.95
14800;BME280;7491;57.750;11.970;2023-04-19T05:36:16;78102.84;;;-142.11;94.09
14800;BME280;7491;57.750;11.970;2023-04-19T05:38:43;78074.28;;;-142.11;93.97
14800;BME280;7491;57.750;11.970;2023-04-19T05:41:11;78086.50;;;-142.11;94.21
14800;BME280;7491;57.750;11.970;2023-04-19T05:43:38;78051.84;;;-142.11;93.89
14800;BME280;7491;57.750;11.970;2023-04-19T05:46:04;78031.44;;;-142.11;94.11
14800;BME280;7491;57.750;11.970;2023-04-19T05:48:31;78047.75;;;-142.11;92.18
14800;BME280;7491;57.750;11.970;2023-04-19T05:50:58;78039.59;;;-142.11;92.87
14800;BME280;7491;57.750;11.970;2023-04-19T05:53:24;78039.59;;;-142.11;91.94
14800;BME280;7491;57.750;11.970;2023-04-19T05:55:51;78025.31;;;-142.11;92.26
14800;BME280;7491;57.750;11.970;2023-04-19T05:58:19;78006.97;;;-142.11;92.40
14800;BME280;7491;57.750;11.970;2023-04-19T06:00:47;77988.63;;;-142.11;92.11
14800;BME280;7491;57.750;11.970;2023-04-19T06:03:14;77988.63;;;-142.11;91.40
14800;BME280;7491;57.750;11.970;2023-04-19T06:05:40;77976.38;;;-142.11;91.07
14800;BME280;7491;57.750;11.970;2023-04-19T06:08:07;77964.13;;;-142.11;91.34
14800;BME280;7491;57.750;11.970;2023-04-19T06:10:35;77943.75;;;-142.11;91.20
14800;BME280;7491;57.750;11.970;2023-04-19T06:13:01;77925.38;;;-142.11;90.83
14800;BME280;7491;57.750;11.970;2023-04-19T06:15:31;77905.00;;;-142.11;89.69
14800;BME280;7491;57.750;11.970;2023-04-19T06:17:57;77880.50;;;-142.11;89.12
14800;BME280;7491;57.750;11.970;2023-04-19T06:20:24;77880.50;;;-142.11;88.95
14800;BME280;7491;57.750;11.970;2023-04-19T06:22:51;77849.91;;;-142.11;89.82
14800;BME280;7491;57.750;11.970;2023-04-19T06:25:18;77825.44;;;-142.11;89.06
14800;BME280;7491;57.750;11.970;2023-04-19T06:27:45;77837.69;;;-142.11;87.81
14800;BME280;7491;57.750;11.970;2023-04-19T06:30:12;77798.94;;;-142.11;88.61
14800;BME280;7491;57.750;11.970;2023-04-19T06:32:40;77756.09;;;-142.11;87.39
14800;BME280;7491;57.750;11.970;2023-04-19T06:35:07;77764.25;;;-142.11;87.18
14800;BME280;7491;57.750;11.970;2023-04-19T06:37:34;77792.81;;;-142.11;85.97
14800;BME280;7491;57.750;11.970;2023-04-19T06:40:00;77780.59;;;-142.11;86.43
14800;BME280;7491;57.750;11.970;2023-04-19T06:42:29;77747.94;;;-142.11;86.38
14800;BME280;7491;57.750;11.970;2023-04-19T06:45:05;77727.56;;;-142.11;85.73
14800;BME280;7491;57.750;11.970;2023-04-19T06:47:33;77709.19;;;-142.11;85.65
14800;BME280;7491;57.750;11.970;2023-04-19T06:50:20;77705.13;;;-142.11;85.41
14800;BME280;7491;57.750;11.970;2023-04-19T06:52:59;77684.72;;;-142.11;84.90
14800;BME280;7491;57.750;11.970;2023-04-19T07:02:06;77631.69;;;-142.11;83.45
14800;BME280;7491;57.750;11.970;2023-04-19T07:22:18;77523.63;;;-142.11;82.95
14800;BME280;7491;57.750;11.970;2023-04-19T07:25:00;77529.72;;;-142.11;82.24
14800;BME280;7491;57.750;11.970;2023-04-19T07:30:37;77493.03;;;-142.11;81.89
14800;BME280;7491;57.750;11.970;2023-04-19T07:33:05;77458.34;;;-142.11;82.62
14800;BME280;7491;57.750;11.970;2023-04-19T07:35:33;77456.31;;;-142.11;82.25
14800;BME280;7491;57.750;11.970;2023-04-19T07:38:02;77423.69;;;-142.11;83.00
14800;BME280;7491;57.750;11.970;2023-04-19T07:40:29;77444.09;;;-142.11;80.51
14800;BME280;7491;57.750;11.970;2023-04-19T07:42:56;77458.34;;;-142.11;80.92
14800;BME280;7491;57.750;11.970;2023-04-19T07:45:23;77419.63;;;-142.11;82.10
14800;BME280;7491;57.750;11.970;2023-04-19T07:47:49;77399.22;;;-142.11;81.63
14800;BME280;7491;57.750;11.970;2023-04-19T07:50:16;77407.38;;;-142.11;80.43
14800;BME280;7491;57.750;11.970;2023-04-19T07:52:43;77384.94;;;-142.11;80.73
14800;BME280;7491;57.750;11.970;2023-04-19T07:55:12;77366.59;;;-142.11;80.93
14800;BME280;7491;57.750;11.970;2023-04-19T07:57:38;77368.63;;;-142.11;80.05
14800;BME280;7491;57.750;11.970;2023-04-19T08:00:11;77378.84;;;-142.11;80.81
14800;BME280;7491;57.750;11.970;2023-04-19T08:02:41;77374.75;;;-142.11;81.45
14800;BME280;7491;57.750;11.970;2023-04-19T08:05:08;77360.47;;;-142.11;80.03
14800;BME280;7491;57.750;11.970;2023-04-19T08:07:36;77362.50;;;-142.11;80.20
14800;BME280;7491;57.750;11.970;2023-04-19T08:10:03;77356.41;;;-142.11;80.77
14800;BME280;7491;57.750;11.970;2023-04-19T08:12:31;77336.00;;;-142.11;80.52
14800;BME280;7491;57.750;11.970;2023-04-19T08:14:58;77338.03;;;-142.11;79.73
14800;BME280;7491;57.750;11.970;2023-04-19T08:17:25;77336.00;;;-142.11;79.96
14800;BME280;7491;57.750;11.970;2023-04-19T08:19:52;77305.41;;;-142.11;79.32
14800;BME280;7491;57.750;11.970;2023-04-19T08:22:19;77313.56;;;-142.11;79.55
14800;BME280;7491;57.750;11.970;2023-04-19T08:24:48;77293.19;;;-142.11;79.15
14800;BME280;7491;57.750;11.970;2023-04-19T08:27:16;77283.00;;;-142.11;80.14
14800;BME280;7491;57.750;11.970;2023-04-19T08:29:44;77268.72;;;-142.11;78.12
14800;BME280;7491;57.750;11.970;2023-04-19T08:32:11;77289.09;;;-142.11;78.26
14800;BME280;7491;57.750;11.970;2023-04-19T08:34:39;77262.59;;;-142.11;78.34
14800;BME280;7491;57.750;11.970;2023-04-19T08:37:06;77270.75;;;-142.11;77.75
14800;BME280;7491;57.750;11.970;2023-04-19T08:39:33;77295.22;;;-142.11;77.39
14800;BME280;7491;57.750;11.970;2023-04-19T08:42:03;77252.41;;;-142.11;78.61
14800;BME280;7491;57.750;11.970;2023-04-19T08:44:31;77268.72;;;-142.11;76.38
14800;BME280;7491;57.750;11.970;2023-04-19T08:47:00;77254.44;;;-142.11;76.27
14800;BME280;7491;57.750;11.970;2023-04-19T08:49:27;77248.31;;;-142.11;77.64
14800;BME280;7491;57.750;11.970;2023-04-19T08:51:54;77242.19;;;-142.11;76.71
14800;BME280;7491;57.750;11.970;2023-04-19T08:54:23;77242.19;;;-142.11;75.78
14800;BME280;7491;57.750;11.970;2023-04-19T08:56:51;77232.00;;;-142.11;76.26
14800;BME280;7491;57.750;11.970;2023-04-19T08:59:18;77209.56;;;-142.11;77.54
14800;BME280;7491;57.750;11.970;2023-04-19T09:01:45;77191.22;;;-142.11;78.14
14800;BME280;7491;57.750;11.970;2023-04-19T09:04:13;77203.47;;;-142.11;74.98
14800;BME280;7491;57.750;11.970;2023-04-19T09:06:40;77219.78;;;-142.11;74.06
14800;BME280;7491;57.750;11.970;2023-04-19T09:09:15;77201.41;;;-142.11;75.78
14800;BME280;7491;57.750;11.970;2023-04-19T09:11:42;77187.16;;;-142.11;74.52
14800;BME280;7491;57.750;11.970;2023-04-19T09:14:11;77183.06;;;-142.11;74.63
14800;BME280;7491;57.750;11.970;2023-04-19T09:16:38;77181.03;;;-142.11;75.42
14800;BME280;7491;57.750;11.970;2023-04-19T09:19:06;77172.88;;;-142.11;75.32
14800;BME280;7491;57.750;11.970;2023-04-19T09:21:35;77146.38;;;-142.11;74.82
14800;BME280;7491;57.750;11.970;2023-04-19T09:24:03;77119.84;;;-142.11;74.21
14800;BME280;7491;57.750;11.970;2023-04-19T09:26:30;77123.94;;;-142.11;71.86
14800;BME280;7491;57.750;11.970;2023-04-19T09:28:58;77128.00;;;-142.11;72.98
14800;BME280;7491;57.750;11.970;2023-04-19T09:31:27;77125.97;;;-142.11;72.88
14800;BME280;7491;57.750;11.970;2023-04-19T09:33:54;77097.44;;;-142.11;74.23
14800;BME280;7491;57.750;11.970;2023-04-19T09:36:29;77070.91;;;-142.11;73.38
14800;BME280;7491;57.750;11.970;2023-04-19T09:38:58;77064.81;;;-142.11;72.05
14800;BME280;7491;57.750;11.970;2023-04-19T09:41:25;77091.31;;;-142.11;70.63
14800;BME280;7491;57.750;11.970;2023-04-19T09:43:52;77072.97;;;-142.11;72.12
14800;BME280;7491;57.750;11.970;2023-04-19T09:46:30;77101.50;;;-142.11;70.64
14800;BME280;7491;57.750;11.970;2023-04-19T09:49:14;77093.34;;;-142.11;72.55
14800;BME280;7491;57.750;11.970;2023-04-19T09:51:42;77081.13;;;-142.11;71.46
14800;BME280;7491;57.750;11.970;2023-04-19T09:54:11;77064.81;;;-142.11;71.54
14800;BME280;7491;57.750;11.970;2023-04-19T09:56:39;77093.34;;;-142.11;72.27
14800;BME280;7491;57.750;11.970;2023-04-19T09:59:07;77085.19;;;-142.11;70.69
14800;BME280;7491;57.750;11.970;2023-04-19T10:01:38;77072.97;;;-142.11;69.78
14800;BME280;7491;57.750;11.970;2023-04-19T10:04:06;77097.44;;;-142.11;69.89
14800;BME280;7491;57.750;11.970;2023-04-19T10:06:34;77064.81;;;-142.11;69.58
14800;BME280;7491;57.750;11.970;2023-04-19T10:09:02;77064.81;;;-142.11;69.79
14800;BME280;7491;57.750;11.970;2023-04-19T10:11:33;77079.06;;;-142.11;69.12
14800;BME280;7491;57.750;11.970;2023-04-19T10:14:05;77075.00;;;-142.11;68.58
14800;BME280;7491;57.750;11.970;2023-04-19T10:16:33;77101.50;;;-142.11;68.22
14800;BME280;7491;57.750;11.970;2023-04-19T10:19:02;77099.47;;;-142.11;67.89
14800;BME280;7491;57.750;11.970;2023-04-19T10:21:30;77054.59;;;-142.11;67.55
14800;BME280;7491;57.750;11.970;2023-04-19T10:23:57;77052.56;;;-142.11;67.57
14800;BME280;7491;57.750;11.970;2023-04-19T10:26:25;77044.41;;;-142.11;68.41
14800;BME280;7491;57.750;11.970;2023-04-19T10:28:54;77052.56;;;-142.11;67.57
14800;BME280;7491;57.750;11.970;2023-04-19T10:31:24;77028.09;;;-142.11;68.39
14800;BME280;7491;57.750;11.970;2023-04-19T10:33:51;76987.31;;;-142.11;68.99
14800;BME280;7491;57.750;11.970;2023-04-19T10:36:19;76973.03;;;-142.11;68.53
14800;BME280;7491;57.750;11.970;2023-04-19T10:38:48;76977.13;;;-142.11;68.73
14800;BME280;7491;57.750;11.970;2023-04-19T10:41:17;76973.03;;;-142.11;67.53
14800;BME280;7491;57.750;11.970;2023-04-19T10:43:45;76971.00;;;-142.11;68.43
14800;BME280;7491;57.750;11.970;2023-04-19T10:46:16;76999.56;;;-142.11;66.61
14800;BME280;7491;57.750;11.970;2023-04-19T10:49:03;77005.66;;;-142.11;66.84
14800;BME280;7491;57.750;11.970;2023-04-19T10:51:32;77005.66;;;-142.11;68.24
14800;BME280;7491;57.750;11.970;2023-04-19T10:54:00;77011.78;;;-142.11;66.46
14800;BME280;7491;57.750;11.970;2023-04-19T10:56:55;77001.59;;;-142.11;66.98
14800;BME280;7491;57.750;11.970;2023-04-19T10:59:23;77011.78;;;-142.11;66.74
14800;BME280;7491;57.750;11.970;2023-04-19T11:01:53;76979.16;;;-142.11;68.33
14800;BME280;7491;57.750;11.970;2023-04-19T11:04:22;76983.25;;;-142.11;67.19
14800;BME280;7491;57.750;11.970;2023-04-19T11:06:59;76987.31;;;-142.11;67.32
14800;BME280;7491;57.750;11.970;2023-04-19T11:09:28;76973.03;;;-142.11;67.42
14800;BME280;7491;57.750;11.970;2023-04-19T11:12:00;76977.13;;;-142.11;67.44
14800;BME280;7491;57.750;11.970;2023-04-19T11:14:31;76956.75;;;-142.11;66.63
14800;BME280;7491;57.750;11.970;2023-04-19T11:17:01;76948.56;;;-142.11;67.15
14800;BME280;7491;57.750;11.970;2023-04-19T11:19:28;76930.22;;;-142.11;66.47
14800;BME280;7491;57.750;11.970;2023-04-19T11:21:57;76922.06;;;-142.11;67.87
14800;BME280;7491;57.750;11.970;2023-04-19T11:24:25;76934.31;;;-142.11;66.33
14800;BME280;7491;57.750;11.970;2023-04-19T11:26:51;76934.31;;;-142.11;66.71
14800;BME280;7491;57.750;11.970;2023-04-19T11:29:21;76940.44;;;-142.11;67.13
14800;BME280;7491;57.750;11.970;2023-04-19T11:31:48;76922.06;;;-142.11;66.48
14800;BME280;7491;57.750;11.970;2023-04-19T11:34:21;76911.88;;;-142.11;68.99
14800;BME280;7491;57.750;11.970;2023-04-19T11:36:49;76887.41;;;-142.11;67.21
14800;BME280;7491;57.750;11.970;2023-04-19T11:39:16;76893.53;;;-142.11;65.87
14800;BME280;7491;57.750;11.970;2023-04-19T11:41:43;76879.25;;;-142.11;66.59
14800;BME280;7491;57.750;11.970;2023-04-19T11:44:14;76895.56;;;-142.11;67.37
14800;BME280;7491;57.750;11.970;2023-04-19T11:46:41;76899.66;;;-142.11;65.89
14800;BME280;7491;57.750;11.970;2023-04-19T11:49:08;76907.81;;;-142.11;64.75
14800;BME280;7491;57.750;11.970;2023-04-19T11:51:42;76897.59;;;-142.11;64.46
14800;BME280;7491;57.750;11.970;2023-04-19T11:54:12;76911.88;;;-142.11;63.49
14800;BME280;7491;57.750;11.970;2023-04-19T11:56:56;76897.59;;;-142.11;64.54
14800;BME280;7491;57.750;11.970;2023-04-19T11:59:23;76883.34;;;-142.11;62.76
14800;BME280;7491;57.750;11.970;2023-04-19T12:01:50;76893.53;;;-142.11;62.18
14800;BME280;7491;57.750;11.970;2023-04-19T12:04:17;76877.22;;;-142.11;62.95
14800;BME280;7491;57.750;11.970;2023-04-19T12:06:55;76875.19;;;-142.11;61.50
14800;BME280;7491;57.750;11.970;2023-04-19T12:09:22;76879.25;;;-142.11;61.72
14800;BME280;7491;57.750;11.970;2023-04-19T12:11:49;76875.19;;;-142.11;62.54
14800;BME280;7491;57.750;11.970;2023-04-19T12:14:18;76867.03;;;-142.11;62.02
14800;BME280;7491;57.750;11.970;2023-04-19T12:17:05;76873.13;;;-142.11;61.18
14800;BME280;7491;57.750;11.970;2023-04-19T12:19:34;76877.22;;;-142.11;60.85
14800;BME280;7491;57.750;11.970;2023-04-19T12:22:13;76879.25;;;-142.11;61.08
14800;BME280;7491;57.750;11.970;2023-04-19T12:24:40;76860.91;;;-142.11;63.22
14800;BME280;7491;57.750;11.970;2023-04-19T12:27:08;76846.63;;;-142.11;62.86
14800;BME280;7491;57.750;11.970;2023-04-19T12:29:35;76838.47;;;-142.11;62.08
14800;BME280;7491;57.750;11.970;2023-04-19T12:32:02;76816.06;;;-142.11;60.10
14800;BME280;7491;57.750;11.970;2023-04-19T12:34:29;76826.25;;;-142.11;58.52
14800;BME280;7491;57.750;11.970;2023-04-19T12:36:56;76820.13;;;-142.11;59.31
14800;BME280;7491;57.750;11.970;2023-04-19T12:39:24;76828.28;;;-142.11;59.37
14800;BME280;7491;57.750;11.970;2023-04-19T12:41:52;76830.31;;;-142.11;59.77
14800;BME280;7491;57.750;11.970;2023-04-19T12:44:19;76828.28;;;-142.11;59.40
14800;BME280;7491;57.750;11.970;2023-04-19T12:46:46;76814.00;;;-142.11;60.00
14800;BME280;7491;57.750;11.970;2023-04-19T12:49:16;76820.13;;;-142.11;58.98
14800;BME280;7491;57.750;11.970;2023-04-19T12:51:42;76805.84;;;-142.11;59.58
14800;BME280;7491;57.750;11.970;2023-04-19T12:54:11;76826.25;;;-142.11;58.19
14800;BME280;7491;57.750;11.970;2023-04-19T12:56:40;76811.97;;;-142.11;58.41
14800;BME280;7491;57.750;11.970;2023-04-19T12:59:07;76797.69;;;-142.11;59.07
14800;BME280;7491;57.750;11.970;2023-04-19T13:01:34;76803.81;;;-142.11;57.34
14800;BME280;7491;57.750;11.970;2023-04-19T13:04:01;76824.22;;;-142.11;57.54
14800;BME280;7491;57.750;11.970;2023-04-19T13:06:28;76787.50;;;-142.11;57.91
14800;BME280;7491;57.750;11.970;2023-04-19T13:08:55;76777.31;;;-142.11;57.76
14800;BME280;7491;57.750;11.970;2023-04-19T13:11:22;76773.22;;;-142.11;58.25